createdAt,value
2022-08-03T00:02:19.028Z,20.90
2022-08-03T00:05:05.046Z,20.80
2022-08-03T00:07:50.627Z,20.80
2022-08-03T00:10:36.174Z,20.70
2022-08-03T00:13:21.727Z,20.60
2022-08-03T00:16:07.359Z,20.50
2022-08-03T00:18:53.322Z,20.50
2022-08-03T00:21:39.058Z,20.50
2022-08-03T00:24:24.489Z,20.50
2022-08-03T00:27:10.081Z,20.40
2022-08-03T00:30:00.160Z,20.40
2022-08-03T00:32:46.191Z,20.40
2022-08-03T00:35:47.206Z,20.30
2022-08-03T00:38:36.025Z,20.30
2022-08-03T00:41:21.688Z,20.30
2022-08-03T00:44:07.215Z,20.30
2022-08-03T00:46:52.686Z,20.30
2022-08-03T00:49:40.905Z,20.30
2022-08-03T00:52:26.872Z,20.20
2022-08-03T00:55:13.026Z,20.20
2022-08-03T00:57:59.498Z,20.20
2022-08-03T01:00:45.038Z,20.20
2022-08-03T01:03:30.684Z,20.10
2022-08-03T01:06:32.292Z,20.00
2022-08-03T01:09:55.847Z,20.00
2022-08-03T01:12:55.850Z,20.00
2022-08-03T01:15:48.356Z,20.00
2022-08-03T01:18:45.503Z,19.90
2022-08-03T01:21:58.762Z,19.90
2022-08-03T01:24:50.848Z,19.80
2022-08-03T01:27:59.943Z,19.90
2022-08-03T01:30:47.259Z,19.90
2022-08-03T01:33:39.145Z,19.80
2022-08-03T01:36:32.178Z,19.80
2022-08-03T01:39:19.813Z,19.80
2022-08-03T01:42:08.091Z,19.80
2022-08-03T01:44:55.743Z,19.70
2022-08-03T01:47:44.468Z,19.60
2022-08-03T01:50:31.767Z,19.50
2022-08-03T01:53:19.450Z,19.50
2022-08-03T01:56:07.405Z,19.50
2022-08-03T01:58:54.283Z,19.50
2022-08-03T02:02:31.813Z,19.40
2022-08-03T02:04:48.560Z,19.50
2022-08-03T02:07:35.058Z,19.50
2022-08-03T02:10:35.150Z,19.40
2022-08-03T02:13:22.203Z,19.40
2022-08-03T02:16:08.355Z,19.40
2022-08-03T02:18:55.201Z,19.50
2022-08-03T02:21:56.747Z,19.30
2022-08-03T02:24:51.054Z,19.40
2022-08-03T02:27:43.140Z,19.40
2022-08-03T02:30:36.996Z,19.30
2022-08-03T02:33:30.209Z,19.10
2022-08-03T02:36:19.752Z,19.20
2022-08-03T02:39:09.869Z,19.30
2022-08-03T02:42:02.161Z,19.40
2022-08-03T02:44:50.388Z,19.30
2022-08-03T02:47:54.117Z,19.30
2022-08-03T02:50:42.866Z,19.30
2022-08-03T02:53:30.320Z,19.20
2022-08-03T02:56:18.201Z,19.20
2022-08-03T02:59:06.129Z,19.10
2022-08-03T03:01:53.937Z,19.10
2022-08-03T03:04:43.161Z,19.10
2022-08-03T03:07:51.361Z,19.10
2022-08-03T03:10:38.258Z,19.10
2022-08-03T03:13:24.681Z,19.10
2022-08-03T03:16:12.854Z,19.00
2022-08-03T03:18:59.960Z,19.00
2022-08-03T03:21:46.188Z,19.00
2022-08-03T03:24:32.747Z,18.90
2022-08-03T03:27:18.814Z,18.90
2022-08-03T03:30:05.333Z,18.80
2022-08-03T03:32:52.575Z,18.80
2022-08-03T03:35:40.127Z,18.80
2022-08-03T03:38:28.073Z,18.70
2022-08-03T03:41:14.407Z,18.70
2022-08-03T03:44:00.372Z,18.70
2022-08-03T03:46:46.091Z,18.60
2022-08-03T03:49:32.731Z,18.60
2022-08-03T03:52:18.473Z,18.60
2022-08-03T03:55:04.437Z,18.70
2022-08-03T03:57:50.247Z,18.70
2022-08-03T04:00:36.027Z,18.60
2022-08-03T04:03:21.530Z,18.50
2022-08-03T04:06:25.340Z,18.50
2022-08-03T04:09:29.814Z,18.50
2022-08-03T04:12:17.380Z,18.40
2022-08-03T04:15:04.538Z,18.40
2022-08-03T04:17:53.104Z,18.40
2022-08-03T04:20:45.494Z,18.40
2022-08-03T04:23:37.326Z,18.40
2022-08-03T04:26:24.565Z,18.40
2022-08-03T04:29:12.009Z,18.40
2022-08-03T04:31:59.261Z,18.40
2022-08-03T04:34:44.834Z,18.40
2022-08-03T04:37:42.560Z,18.50
2022-08-03T04:40:32.892Z,18.40
2022-08-03T04:43:20.987Z,18.50
2022-08-03T04:46:07.907Z,18.60
2022-08-03T04:48:54.477Z,18.60
2022-08-03T04:51:40.616Z,18.70
2022-08-03T04:54:26.242Z,18.80
2022-08-03T04:57:22.489Z,18.80
2022-08-03T05:00:09.656Z,18.90
2022-08-03T05:02:55.729Z,19.00
2022-08-03T05:05:50.225Z,19.00
2022-08-03T05:08:36.400Z,19.20
2022-08-03T05:11:32.119Z,19.30
2022-08-03T05:14:17.730Z,19.40
2022-08-03T05:17:13.668Z,19.50
2022-08-03T05:19:59.116Z,19.50
2022-08-03T05:22:44.697Z,19.60
2022-08-03T05:25:30.677Z,19.70
2022-08-03T05:28:16.427Z,19.70
2022-08-03T05:31:04.039Z,19.70
2022-08-03T05:33:49.794Z,19.80
2022-08-03T05:36:35.704Z,19.80
2022-08-03T05:39:21.169Z,20.00
2022-08-03T05:42:06.753Z,20.00
2022-08-03T05:44:52.347Z,20.10
2022-08-03T05:47:37.936Z,20.20
2022-08-03T05:50:23.736Z,20.30
2022-08-03T05:53:09.292Z,20.40
2022-08-03T05:55:59.286Z,20.50
2022-08-03T05:58:48.932Z,20.60
2022-08-03T06:01:34.577Z,20.80
2022-08-03T06:04:20.120Z,21.00
2022-08-03T06:07:05.855Z,21.30
2022-08-03T06:10:36.103Z,21.40
2022-08-03T06:12:57.260Z,21.40
2022-08-03T06:15:42.792Z,21.60
2022-08-03T06:18:28.426Z,21.80
2022-08-03T06:21:16.180Z,21.80
2022-08-03T06:24:02.583Z,21.90
2022-08-03T06:26:48.388Z,22.00
2022-08-03T06:29:33.838Z,22.10
2022-08-03T06:32:22.769Z,22.20
2022-08-03T06:35:09.779Z,22.40
2022-08-03T06:37:55.491Z,22.50
2022-08-03T06:40:41.152Z,22.50
2022-08-03T06:43:26.553Z,22.60
2022-08-03T06:46:11.927Z,22.60
2022-08-03T06:48:57.634Z,22.80
2022-08-03T06:52:06.018Z,22.80
2022-08-03T06:54:48.832Z,23.00
2022-08-03T06:57:34.374Z,23.10
2022-08-03T07:00:20.393Z,23.20
2022-08-03T07:03:05.980Z,23.30
2022-08-03T07:05:51.798Z,23.50
2022-08-03T07:08:37.945Z,23.60
2022-08-03T07:11:23.815Z,23.70
2022-08-03T07:14:09.265Z,23.70
2022-08-03T07:16:54.722Z,23.80
2022-08-03T07:19:40.448Z,23.90
2022-08-03T07:22:26.325Z,24.10
2022-08-03T07:25:12.089Z,24.30
2022-08-03T07:27:57.663Z,24.40
2022-08-03T07:30:43.542Z,24.50
2022-08-03T07:33:29.013Z,24.70
2022-08-03T07:36:14.452Z,24.80
2022-08-03T07:39:00.200Z,24.90
2022-08-03T07:42:01.427Z,25.10
2022-08-03T07:44:47.030Z,25.20
2022-08-03T07:47:35.211Z,25.20
2022-08-03T07:50:22.657Z,25.30
2022-08-03T07:53:08.947Z,25.50
2022-08-03T07:55:54.686Z,25.60
2022-08-03T07:58:40.382Z,25.80
2022-08-03T08:01:26.257Z,25.90
2022-08-03T08:04:11.747Z,26.10
2022-08-03T08:06:57.096Z,26.30
2022-08-03T08:09:43.181Z,26.40
2022-08-03T08:12:28.750Z,26.40
2022-08-03T08:15:14.453Z,26.50
2022-08-03T08:18:01.431Z,26.60
2022-08-03T08:20:48.631Z,26.70
2022-08-03T08:23:42.336Z,26.90
2022-08-03T08:26:28.697Z,27.10
2022-08-03T08:29:14.736Z,27.30
2022-08-03T08:32:00.406Z,27.50
2022-08-03T08:34:45.931Z,27.70
2022-08-03T08:37:31.755Z,27.70
2022-08-03T08:40:20.577Z,27.90
2022-08-03T08:43:07.764Z,27.90
2022-08-03T08:45:56.398Z,28.10
2022-08-03T08:48:45.278Z,28.30
2022-08-03T08:51:54.518Z,28.50
2022-08-03T08:54:45.429Z,28.70
2022-08-03T08:57:42.738Z,28.80
2022-08-03T09:00:30.907Z,29.00
2022-08-03T09:03:26.151Z,29.10
2022-08-03T09:06:16.897Z,29.30
2022-08-03T09:09:05.492Z,29.30
2022-08-03T09:11:54.483Z,29.30
2022-08-03T09:15:07.369Z,29.40
2022-08-03T09:17:58.552Z,29.50
2022-08-03T09:20:44.520Z,29.60
2022-08-03T09:24:02.246Z,29.80
2022-08-03T09:26:52.171Z,30.10
2022-08-03T09:29:39.615Z,30.10
2022-08-03T09:32:25.719Z,30.20
2022-08-03T09:35:12.189Z,30.30
2022-08-03T09:38:14.320Z,30.30
2022-08-03T09:41:00.828Z,30.40
2022-08-03T09:43:47.609Z,30.50
2022-08-03T09:46:50.357Z,30.80
2022-08-03T09:49:41.448Z,31.00
2022-08-03T09:52:49.851Z,31.10
2022-08-03T09:56:33.567Z,30.90
2022-08-03T09:58:47.830Z,31.20
2022-08-03T10:01:35.250Z,31.40
2022-08-03T10:04:20.809Z,31.50
2022-08-03T10:07:09.425Z,31.70
2022-08-03T10:10:30.255Z,31.90
2022-08-03T10:13:05.160Z,32.20
2022-08-03T10:16:23.346Z,32.40
2022-08-03T10:18:57.710Z,32.60
2022-08-03T10:21:49.950Z,32.70
2022-08-03T10:24:37.374Z,32.60
2022-08-03T10:27:25.320Z,32.80
2022-08-03T10:30:12.104Z,32.90
2022-08-03T10:33:05.111Z,32.90
2022-08-03T10:36:13.501Z,32.80
2022-08-03T10:38:59.850Z,33.00
2022-08-03T10:41:47.184Z,33.30
2022-08-03T10:44:39.145Z,33.50
2022-08-03T10:47:25.119Z,33.70
2022-08-03T10:50:12.290Z,33.70
2022-08-03T10:53:05.217Z,33.70
2022-08-03T10:56:10.452Z,33.90
2022-08-03T10:58:57.443Z,33.90
2022-08-03T11:02:00.431Z,34.20
2022-08-03T11:04:46.833Z,34.00
2022-08-03T11:07:32.409Z,34.10
2022-08-03T11:10:31.912Z,34.20
2022-08-03T11:13:23.439Z,34.50
2022-08-03T11:16:22.250Z,34.50
2022-08-03T11:19:09.663Z,34.70
2022-08-03T11:21:57.752Z,35.00
2022-08-03T11:24:54.293Z,34.70
2022-08-03T11:27:40.128Z,35.00
2022-08-03T11:30:27.611Z,35.00
2022-08-03T11:33:30.267Z,35.00
2022-08-03T11:36:32.115Z,35.00
2022-08-03T11:39:19.160Z,35.30
2022-08-03T11:42:35.524Z,35.50
2022-08-03T11:45:21.178Z,35.80
2022-08-03T11:48:17.316Z,35.90
2022-08-03T11:51:08.252Z,35.80
2022-08-03T11:54:01.842Z,35.40
2022-08-03T11:56:49.602Z,35.40
2022-08-03T11:59:38.653Z,35.50
2022-08-03T12:02:24.373Z,35.40
2022-08-03T12:05:09.864Z,35.80
2022-08-03T12:08:03.338Z,35.90
2022-08-03T12:10:52.080Z,36.10
2022-08-03T12:14:45.350Z,36.40
2022-08-03T12:16:52.282Z,36.60
2022-08-03T12:19:44.332Z,36.60
2022-08-03T12:22:39.251Z,36.70
2022-08-03T12:25:39.627Z,36.60
2022-08-03T12:28:37.322Z,36.50
2022-08-03T12:31:24.845Z,36.60
2022-08-03T12:34:11.391Z,36.70
2022-08-03T12:36:57.788Z,36.80
2022-08-03T12:40:02.698Z,36.80
2022-08-03T12:42:53.013Z,37.00
2022-08-03T12:45:38.891Z,37.00
2022-08-03T12:48:24.601Z,37.00
2022-08-03T12:51:13.718Z,36.80
2022-08-03T12:54:00.232Z,36.60
2022-08-03T12:57:04.613Z,36.80
2022-08-03T12:59:53.068Z,36.80
2022-08-03T13:02:39.129Z,36.80
2022-08-03T13:05:32.147Z,36.80
2022-08-03T13:08:23.407Z,37.00
2022-08-03T13:11:43.422Z,37.10
2022-08-03T13:14:32.567Z,37.10
2022-08-03T13:17:19.265Z,36.90
2022-08-03T13:20:05.710Z,36.90
2022-08-03T13:22:51.928Z,36.90
2022-08-03T13:25:37.530Z,37.10
2022-08-03T13:28:40.998Z,37.00
2022-08-03T13:31:26.498Z,37.20
2022-08-03T13:34:12.204Z,37.10
2022-08-03T13:37:09.084Z,37.10
2022-08-03T13:39:59.923Z,37.10
2022-08-03T13:42:47.901Z,36.90
2022-08-03T13:45:33.521Z,36.70
2022-08-03T13:48:37.220Z,36.60
2022-08-03T13:51:23.704Z,36.70
2022-08-03T13:54:09.281Z,36.70
2022-08-03T13:56:57.810Z,36.80
2022-08-03T13:59:46.126Z,37.00
2022-08-03T14:02:33.574Z,37.00
2022-08-03T14:05:19.714Z,36.70
2022-08-03T14:08:06.808Z,36.20
2022-08-03T14:10:52.445Z,36.30
2022-08-03T14:13:38.396Z,36.60
2022-08-03T14:16:24.187Z,36.50
2022-08-03T14:19:09.960Z,36.60
2022-08-03T14:22:06.063Z,36.40
2022-08-03T14:24:52.535Z,36.30
2022-08-03T14:27:38.587Z,36.50
2022-08-03T14:30:24.089Z,36.50
2022-08-03T14:33:09.561Z,36.50
2022-08-03T14:35:55.288Z,36.60
2022-08-03T14:38:41.216Z,36.70
2022-08-03T14:41:27.767Z,36.70
2022-08-03T14:44:14.402Z,36.70
2022-08-03T14:47:00.276Z,36.80
2022-08-03T14:50:37.282Z,36.80
2022-08-03T14:52:52.291Z,36.90
2022-08-03T14:55:49.681Z,36.80
2022-08-03T14:58:36.927Z,36.90
2022-08-03T15:02:04.567Z,36.90
2022-08-03T15:04:28.470Z,36.80
2022-08-03T15:07:14.079Z,36.70
2022-08-03T15:09:59.876Z,36.50
2022-08-03T15:12:48.066Z,36.40
2022-08-03T15:15:33.695Z,36.40
2022-08-03T15:18:20.298Z,36.50
2022-08-03T15:21:07.064Z,36.50
2022-08-03T15:24:12.235Z,36.60
2022-08-03T15:26:57.763Z,36.60
2022-08-03T15:30:07.256Z,36.70
2022-08-03T15:32:48.973Z,36.70
2022-08-03T15:35:34.876Z,36.80
2022-08-03T15:38:26.083Z,36.70
2022-08-03T15:41:14.464Z,36.40
2022-08-03T15:44:04.206Z,36.40
2022-08-03T15:46:53.895Z,36.40
2022-08-03T15:49:39.472Z,36.40
2022-08-03T15:52:25.255Z,36.30
2022-08-03T15:55:11.115Z,36.30
2022-08-03T15:59:04.324Z,36.30
2022-08-03T16:01:08.593Z,36.30
2022-08-03T16:03:54.191Z,36.30
2022-08-03T16:06:39.857Z,36.30
2022-08-03T16:09:43.396Z,36.30
2022-08-03T16:12:29.299Z,36.30
2022-08-03T16:15:16.024Z,36.10
2022-08-03T16:18:01.817Z,36.20
2022-08-03T16:20:47.843Z,36.20
2022-08-03T16:23:33.894Z,36.20
2022-08-03T16:26:19.452Z,36.10
2022-08-03T16:29:05.137Z,36.10
2022-08-03T16:32:09.494Z,36.00
2022-08-03T16:34:55.408Z,35.80
2022-08-03T16:37:56.583Z,35.70
2022-08-03T16:40:42.700Z,35.70
2022-08-03T16:43:28.553Z,35.50
2022-08-03T16:46:14.088Z,35.50
2022-08-03T16:49:03.588Z,35.40
2022-08-03T16:51:51.194Z,35.50
2022-08-03T16:54:36.797Z,35.40
2022-08-03T16:57:58.698Z,35.40
2022-08-03T17:00:34.376Z,35.40
2022-08-03T17:03:27.483Z,35.30
2022-08-03T17:06:13.483Z,35.10
2022-08-03T17:09:00.480Z,35.00
2022-08-03T17:11:47.842Z,34.90
2022-08-03T17:14:33.765Z,34.80
2022-08-03T17:17:47.660Z,34.70
2022-08-03T17:20:42.674Z,34.60
2022-08-03T17:23:51.674Z,34.50
2022-08-03T17:26:43.319Z,34.40
2022-08-03T17:29:30.100Z,34.30
2022-08-03T17:32:21.381Z,34.10
2022-08-03T17:35:08.399Z,34.10
2022-08-03T17:38:03.285Z,34.00
2022-08-03T17:40:51.877Z,34.00
2022-08-03T17:44:13.380Z,33.90
2022-08-03T17:46:44.996Z,33.90
2022-08-03T17:49:32.676Z,33.80
2022-08-03T17:52:41.236Z,33.70
2022-08-03T17:55:55.231Z,33.60
2022-08-03T17:59:08.596Z,33.40
2022-08-03T18:02:30.756Z,33.20
2022-08-03T18:05:21.778Z,33.10
2022-08-03T18:08:11.266Z,32.90
2022-08-03T18:11:03.547Z,32.80
2022-08-03T18:14:23.798Z,32.70
2022-08-03T18:17:15.714Z,32.60
2022-08-03T18:20:11.632Z,32.40
2022-08-03T18:23:11.335Z,32.30
2022-08-03T18:26:12.174Z,32.20
2022-08-03T18:28:58.833Z,32.00
2022-08-03T18:32:02.588Z,31.90
2022-08-03T18:34:53.621Z,31.80
2022-08-03T18:37:51.807Z,31.70
2022-08-03T18:40:37.974Z,31.50
2022-08-03T18:43:46.375Z,31.20
2022-08-03T18:47:07.101Z,30.90
2022-08-03T18:49:59.594Z,30.70
2022-08-03T18:53:02.815Z,30.40
2022-08-03T18:56:29.678Z,30.20
2022-08-03T18:59:30.124Z,30.10
2022-08-03T19:02:56.386Z,29.90
2022-08-03T19:06:04.430Z,29.70
2022-08-03T19:09:03.854Z,29.40
2022-08-03T19:15:13.029Z,29.10
2022-08-03T19:18:00.677Z,28.90
2022-08-03T19:20:54.630Z,28.60
2022-08-03T19:23:47.094Z,28.30
2022-08-03T19:26:38.555Z,28.20
2022-08-03T19:29:58.383Z,28.10
2022-08-03T19:32:34.309Z,28.00
2022-08-03T19:35:51.151Z,28.00
2022-08-03T19:38:29.481Z,27.90
2022-08-03T19:41:19.049Z,27.70
2022-08-03T19:44:10.425Z,27.40
2022-08-03T19:47:09.168Z,27.10
2022-08-03T19:50:06.283Z,26.90
2022-08-03T19:53:04.165Z,27.00
2022-08-03T19:55:53.689Z,27.00
2022-08-03T19:58:40.490Z,27.00
2022-08-03T20:01:28.258Z,27.00
2022-08-03T20:04:15.259Z,27.00
2022-08-03T20:07:04.510Z,26.90
2022-08-03T20:09:56.059Z,27.00
2022-08-03T20:12:43.658Z,27.00
2022-08-03T20:15:31.736Z,26.90
2022-08-03T20:18:39.449Z,26.90
2022-08-03T20:21:31.018Z,26.80
2022-08-03T20:24:35.238Z,26.70
2022-08-03T20:27:22.165Z,26.70
2022-08-03T20:30:16.583Z,26.60
2022-08-03T20:33:04.848Z,26.60
2022-08-03T20:35:51.669Z,26.50
2022-08-03T20:38:43.764Z,26.50
2022-08-03T20:41:33.021Z,26.50
2022-08-03T20:44:25.582Z,26.40
2022-08-03T20:47:13.854Z,26.30
2022-08-03T20:50:10.467Z,26.20
2022-08-03T20:52:59.061Z,26.00
2022-08-03T20:56:01.794Z,25.90
2022-08-03T20:58:56.204Z,26.00
2022-08-03T21:01:44.347Z,26.00
2022-08-03T21:04:30.605Z,26.00
2022-08-03T21:07:22.943Z,25.90
2022-08-03T21:10:11.565Z,25.90
2022-08-03T21:13:10.495Z,29.20
2022-08-03T21:13:22.608Z,26.00
2022-08-03T21:16:14.960Z,26.00
2022-08-03T21:19:04.156Z,26.10
2022-08-03T21:21:51.798Z,26.10
2022-08-03T21:24:40.672Z,25.90
2022-08-03T21:27:31.458Z,25.90
2022-08-03T21:30:18.826Z,25.70
2022-08-03T21:33:08.297Z,25.70
2022-08-03T21:35:54.483Z,25.70
2022-08-03T21:38:42.010Z,25.70
2022-08-03T21:41:31.634Z,25.70
2022-08-03T21:44:25.230Z,25.70
2022-08-03T21:47:16.057Z,25.70
2022-08-03T21:50:06.722Z,25.70
2022-08-03T21:52:56.665Z,25.70
2022-08-03T21:55:50.495Z,25.70
2022-08-03T21:58:51.145Z,25.70
2022-08-03T22:01:42.420Z,25.80
2022-08-03T22:04:50.963Z,25.80
2022-08-03T22:07:34.893Z,25.80
2022-08-03T22:10:21.383Z,25.70
2022-08-03T22:13:07.365Z,25.60
2022-08-03T22:15:56.821Z,25.60
2022-08-03T22:18:45.276Z,25.50
2022-08-03T22:21:36.041Z,25.40
2022-08-03T22:24:28.793Z,25.30
2022-08-03T22:27:32.557Z,25.30
2022-08-03T22:30:19.655Z,25.20
2022-08-03T22:33:11.401Z,25.10
2022-08-03T22:35:59.121Z,25.10
2022-08-03T22:38:48.733Z,25.00
2022-08-03T22:41:37.283Z,25.00
2022-08-03T22:44:24.082Z,24.90
2022-08-03T22:47:10.387Z,24.80
2022-08-03T22:50:32.089Z,24.80
2022-08-03T22:53:06.652Z,24.70
2022-08-03T22:55:52.531Z,24.60
2022-08-03T22:58:38.210Z,24.30
2022-08-03T23:01:26.919Z,24.30
2022-08-03T23:04:13.004Z,24.30
2022-08-03T23:07:02.967Z,24.30
2022-08-03T23:09:49.176Z,24.30
2022-08-03T23:12:38.381Z,24.10
2022-08-03T23:15:29.418Z,24.20
2022-08-03T23:18:15.650Z,24.10
2022-08-03T23:21:10.984Z,24.10
2022-08-03T23:23:57.762Z,24.10
2022-08-03T23:26:44.858Z,24.00
2022-08-03T23:29:31.709Z,24.10
2022-08-03T23:32:21.520Z,23.90
2022-08-03T23:36:18.706Z,23.80
2022-08-03T23:38:36.579Z,23.90
2022-08-03T23:41:27.169Z,24.00
2022-08-03T23:44:14.590Z,23.90
2022-08-03T23:47:01.725Z,23.90
2022-08-03T23:49:47.505Z,23.80
2022-08-03T23:52:53.345Z,23.80
2022-08-03T23:55:50.999Z,23.80
2022-08-03T23:59:21.843Z,23.80
